CPL6 weather

Parkland Airport
Edmonton, Alberta, Canada

Public forecast

Using degrees Celsius for public forecast. Weather courtesy of forecast.io.

Closest aviation weather report (METAR) to Parkland Airport

Closest report is Edmonton / Villeneuve Airport, 11.7 nm (21.6 km) N. Retrieved 2020/04/09 01:00 UTC (50 minutes ago):

CZVL 090100Z AUTO 35002KT 9SM FEW240 02/M08 A3022 RMK SLP270

Closest aviation forecast (TAF) to Parkland Airport

Closest forecast is Edmonton / Villeneuve Airport, 11.7 nm (21.6 km) N. Retrieved 2020-04-09 00:00 UTC (2 hours ago):

TAF CZVL 082339Z 0900/0912 35008KT P6SM FEW060 FEW120 SCT240 BECMG 0902/0904 17008KT FM090800 17012KT P6SM BKN080 BKN200 RMK FCST BASED ON AUTO OBS NXT FCST BY 090600Z